sensor_id;sensor_type;location;lat;lon;timestamp;temperature;humidity
51908;DHT22;39320;53.214;6.556;2022-09-09T00:00:16;17.60;99.90
51908;DHT22;39320;53.214;6.556;2022-09-09T00:02:45;17.50;99.90
51908;DHT22;39320;53.214;6.556;2022-09-09T00:07:53;17.50;99.90
51908;DHT22;39320;53.214;6.556;2022-09-09T00:10:22;17.50;99.90
51908;DHT22;39320;53.214;6.556;2022-09-09T00:15:38;17.40;99.90
51908;DHT22;39320;53.214;6.556;2022-09-09T00:20:57;17.40;99.90
51908;DHT22;39320;53.214;6.556;2022-09-09T00:23:24;17.40;99.90
51908;DHT22;39320;53.214;6.556;2022-09-09T00:28:37;17.40;99.90
51908;DHT22;39320;53.214;6.556;2022-09-09T00:31:08;17.50;99.90
51908;DHT22;39320;53.214;6.556;2022-09-09T00:33:36;17.40;99.90
51908;DHT22;39320;53.214;6.556;2022-09-09T00:36:02;17.50;99.90
51908;DHT22;39320;53.214;6.556;2022-09-09T00:38:35;17.40;99.90
51908;DHT22;39320;53.214;6.556;2022-09-09T00:43:30;17.40;99.90
51908;DHT22;39320;53.214;6.556;2022-09-09T00:48:48;17.40;99.90
51908;DHT22;39320;53.214;6.556;2022-09-09T00:56:41;16.90;99.90
51908;DHT22;39320;53.214;6.556;2022-09-09T01:01:46;17.30;99.90
51908;DHT22;39320;53.214;6.556;2022-09-09T01:04:16;17.30;99.90
51908;DHT22;39320;53.214;6.556;2022-09-09T01:06:46;17.30;99.90
51908;DHT22;39320;53.214;6.556;2022-09-09T01:16:50;17.20;99.90
51908;DHT22;39320;53.214;6.556;2022-09-09T01:19:20;17.20;99.90
51908;DHT22;39320;53.214;6.556;2022-09-09T01:22:06;17.20;99.90
51908;DHT22;39320;53.214;6.556;2022-09-09T01:24:37;17.20;99.90
51908;DHT22;39320;53.214;6.556;2022-09-09T01:27:05;17.20;99.90
51908;DHT22;39320;53.214;6.556;2022-09-09T01:29:31;17.20;99.90
51908;DHT22;39320;53.214;6.556;2022-09-09T01:31:58;17.20;99.90
51908;DHT22;39320;53.214;6.556;2022-09-09T01:34:25;17.20;99.90
51908;DHT22;39320;53.214;6.556;2022-09-09T01:37:04;17.20;99.90
51908;DHT22;39320;53.214;6.556;2022-09-09T01:39:31;17.20;99.90
51908;DHT22;39320;53.214;6.556;2022-09-09T01:41:58;17.20;99.90
51908;DHT22;39320;53.214;6.556;2022-09-09T01:44:24;17.20;99.90
51908;DHT22;39320;53.214;6.556;2022-09-09T01:46:50;17.20;99.90
51908;DHT22;39320;53.214;6.556;2022-09-09T01:49:17;17.20;99.90
51908;DHT22;39320;53.214;6.556;2022-09-09T01:51:43;17.20;99.90
51908;DHT22;39320;53.214;6.556;2022-09-09T01:54:08;17.20;99.90
51908;DHT22;39320;53.214;6.556;2022-09-09T02:01:51;17.10;99.90
51908;DHT22;39320;53.214;6.556;2022-09-09T02:04:27;17.50;99.90
51908;DHT22;39320;53.214;6.556;2022-09-09T02:06:57;17.10;99.90
51908;DHT22;39320;53.214;6.556;2022-09-09T02:09:24;17.00;99.90
51908;DHT22;39320;53.214;6.556;2022-09-09T02:11:50;17.00;99.90
51908;DHT22;39320;53.214;6.556;2022-09-09T02:14:22;17.10;99.90
51908;DHT22;39320;53.214;6.556;2022-09-09T02:16:56;17.10;99.90
51908;DHT22;39320;53.214;6.556;2022-09-09T02:19:28;17.00;99.90
51908;DHT22;39320;53.214;6.556;2022-09-09T02:21:56;17.00;99.90
51908;DHT22;39320;53.214;6.556;2022-09-09T02:24:23;17.00;99.90
51908;DHT22;39320;53.214;6.556;2022-09-09T02:26:49;16.90;99.90
51908;DHT22;39320;53.214;6.556;2022-09-09T02:29:27;16.80;99.90
51908;DHT22;39320;53.214;6.556;2022-09-09T02:31:55;16.80;99.90
51908;DHT22;39320;53.214;6.556;2022-09-09T02:34:23;16.80;99.90
51908;DHT22;39320;53.214;6.556;2022-09-09T02:36:49;16.80;99.90
51908;DHT22;39320;53.214;6.556;2022-09-09T02:39:17;16.80;99.90
51908;DHT22;39320;53.214;6.556;2022-09-09T02:41:43;16.80;99.90
51908;DHT22;39320;53.214;6.556;2022-09-09T02:44:12;16.70;99.90
51908;DHT22;39320;53.214;6.556;2022-09-09T02:52:02;16.70;99.90
51908;DHT22;39320;53.214;6.556;2022-09-09T02:54:33;16.70;99.90
51908;DHT22;39320;53.214;6.556;2022-09-09T02:57:03;16.70;99.90
51908;DHT22;39320;53.214;6.556;2022-09-09T02:59:31;16.60;99.90
51908;DHT22;39320;53.214;6.556;2022-09-09T03:01:57;16.60;99.90
51908;DHT22;39320;53.214;6.556;2022-09-09T03:04:23;16.60;99.90
51908;DHT22;39320;53.214;6.556;2022-09-09T03:06:50;16.60;99.90
51908;DHT22;39320;53.214;6.556;2022-09-09T03:09:16;16.60;99.90
51908;DHT22;39320;53.214;6.556;2022-09-09T03:11:41;16.70;99.90
51908;DHT22;39320;53.214;6.556;2022-09-09T03:14:07;16.70;99.90
51908;DHT22;39320;53.214;6.556;2022-09-09T03:16:33;16.60;99.90
51908;DHT22;39320;53.214;6.556;2022-09-09T03:19:00;16.60;99.90
51908;DHT22;39320;53.214;6.556;2022-09-09T03:21:25;16.60;99.90
51908;DHT22;39320;53.214;6.556;2022-09-09T03:23:51;16.60;99.90
51908;DHT22;39320;53.214;6.556;2022-09-09T03:26:17;16.60;99.90
51908;DHT22;39320;53.214;6.556;2022-09-09T03:28:42;16.60;99.90
51908;DHT22;39320;53.214;6.556;2022-09-09T03:31:08;16.50;99.90
51908;DHT22;39320;53.214;6.556;2022-09-09T03:33:38;16.50;99.90
51908;DHT22;39320;53.214;6.556;2022-09-09T03:36:06;16.50;99.90
51908;DHT22;39320;53.214;6.556;2022-09-09T03:38:32;16.50;99.90
51908;DHT22;39320;53.214;6.556;2022-09-09T03:40:58;16.50;99.90
51908;DHT22;39320;53.214;6.556;2022-09-09T03:43:25;16.50;99.90
51908;DHT22;39320;53.214;6.556;2022-09-09T03:45:52;16.50;99.90
51908;DHT22;39320;53.214;6.556;2022-09-09T03:48:18;16.70;99.90
51908;DHT22;39320;53.214;6.556;2022-09-09T03:50:47;16.50;99.90
51908;DHT22;39320;53.214;6.556;2022-09-09T03:53:13;16.60;99.90
51908;DHT22;39320;53.214;6.556;2022-09-09T03:55:41;16.60;99.90
51908;DHT22;39320;53.214;6.556;2022-09-09T03:58:08;16.70;99.90
51908;DHT22;39320;53.214;6.556;2022-09-09T04:00:34;16.60;99.90
51908;DHT22;39320;53.214;6.556;2022-09-09T04:02:59;16.60;99.90
51908;DHT22;39320;53.214;6.556;2022-09-09T04:05:25;16.80;99.90
51908;DHT22;39320;53.214;6.556;2022-09-09T04:07:51;16.70;99.90
51908;DHT22;39320;53.214;6.556;2022-09-09T04:10:16;16.70;99.90
51908;DHT22;39320;53.214;6.556;2022-09-09T04:12:42;16.80;99.90
51908;DHT22;39320;53.214;6.556;2022-09-09T04:15:08;16.80;99.90
51908;DHT22;39320;53.214;6.556;2022-09-09T04:17:34;16.80;99.90
51908;DHT22;39320;53.214;6.556;2022-09-09T04:20:01;16.80;99.90
51908;DHT22;39320;53.214;6.556;2022-09-09T04:22:27;16.80;99.90
51908;DHT22;39320;53.214;6.556;2022-09-09T04:24:53;16.70;99.90
51908;DHT22;39320;53.214;6.556;2022-09-09T04:27:19;16.80;99.90
51908;DHT22;39320;53.214;6.556;2022-09-09T04:29:44;16.80;99.90
51908;DHT22;39320;53.214;6.556;2022-09-09T04:32:10;16.80;99.90
51908;DHT22;39320;53.214;6.556;2022-09-09T04:34:36;16.70;99.90
51908;DHT22;39320;53.214;6.556;2022-09-09T04:37:02;16.80;99.90
51908;DHT22;39320;53.214;6.556;2022-09-09T04:39:28;16.80;99.90
51908;DHT22;39320;53.214;6.556;2022-09-09T04:41:54;16.80;99.90
51908;DHT22;39320;53.214;6.556;2022-09-09T04:44:20;16.80;99.90
51908;DHT22;39320;53.214;6.556;2022-09-09T04:46:46;16.80;99.90
51908;DHT22;39320;53.214;6.556;2022-09-09T04:49:11;16.80;99.90
51908;DHT22;39320;53.214;6.556;2022-09-09T04:51:37;16.80;99.90
51908;DHT22;39320;53.214;6.556;2022-09-09T04:54:03;16.20;99.90
51908;DHT22;39320;53.214;6.556;2022-09-09T04:56:28;16.80;99.90
51908;DHT22;39320;53.214;6.556;2022-09-09T04:58:54;16.80;99.90
51908;DHT22;39320;53.214;6.556;2022-09-09T05:01:21;16.80;99.90
51908;DHT22;39320;53.214;6.556;2022-09-09T05:03:47;16.80;99.90
51908;DHT22;39320;53.214;6.556;2022-09-09T05:06:14;16.70;99.90
51908;DHT22;39320;53.214;6.556;2022-09-09T05:08:40;16.70;99.90
51908;DHT22;39320;53.214;6.556;2022-09-09T05:11:22;16.70;99.90
51908;DHT22;39320;53.214;6.556;2022-09-09T05:13:49;16.80;99.90
51908;DHT22;39320;53.214;6.556;2022-09-09T05:16:15;16.80;99.90
51908;DHT22;39320;53.214;6.556;2022-09-09T05:18:42;16.30;99.90
51908;DHT22;39320;53.214;6.556;2022-09-09T05:21:11;16.70;99.90
51908;DHT22;39320;53.214;6.556;2022-09-09T05:23:37;16.80;99.90
51908;DHT22;39320;53.214;6.556;2022-09-09T05:26:03;16.70;99.90
51908;DHT22;39320;53.214;6.556;2022-09-09T05:28:29;16.70;99.90
51908;DHT22;39320;53.214;6.556;2022-09-09T05:31:02;16.70;99.90
51908;DHT22;39320;53.214;6.556;2022-09-09T05:33:30;16.70;99.90
51908;DHT22;39320;53.214;6.556;2022-09-09T05:35:57;16.60;99.90
51908;DHT22;39320;53.214;6.556;2022-09-09T05:38:23;16.60;99.90
51908;DHT22;39320;53.214;6.556;2022-09-09T05:40:52;16.30;99.90
51908;DHT22;39320;53.214;6.556;2022-09-09T05:43:18;16.60;99.90
51908;DHT22;39320;53.214;6.556;2022-09-09T05:45:47;16.60;99.90
51908;DHT22;39320;53.214;6.556;2022-09-09T05:48:16;16.60;99.90
51908;DHT22;39320;53.214;6.556;2022-09-09T05:50:42;16.60;99.90
51908;DHT22;39320;53.214;6.556;2022-09-09T05:53:08;16.60;99.90
51908;DHT22;39320;53.214;6.556;2022-09-09T05:55:35;16.50;99.90
51908;DHT22;39320;53.214;6.556;2022-09-09T05:58:01;16.60;99.90
51908;DHT22;39320;53.214;6.556;2022-09-09T06:00:27;16.60;99.90
51908;DHT22;39320;53.214;6.556;2022-09-09T06:02:52;16.60;99.90
51908;DHT22;39320;53.214;6.556;2022-09-09T06:05:19;16.60;99.90
51908;DHT22;39320;53.214;6.556;2022-09-09T06:07:44;16.60;99.90
51908;DHT22;39320;53.214;6.556;2022-09-09T06:10:10;16.60;99.90
51908;DHT22;39320;53.214;6.556;2022-09-09T06:12:39;16.60;99.90
51908;DHT22;39320;53.214;6.556;2022-09-09T06:15:04;16.60;99.90
51908;DHT22;39320;53.214;6.556;2022-09-09T06:17:30;16.70;99.90
51908;DHT22;39320;53.214;6.556;2022-09-09T06:19:56;16.70;99.90
51908;DHT22;39320;53.214;6.556;2022-09-09T06:22:22;16.70;99.90
51908;DHT22;39320;53.214;6.556;2022-09-09T06:24:47;16.70;99.90
51908;DHT22;39320;53.214;6.556;2022-09-09T06:27:13;16.70;99.90
51908;DHT22;39320;53.214;6.556;2022-09-09T06:29:39;16.60;99.90
51908;DHT22;39320;53.214;6.556;2022-09-09T06:32:04;16.60;99.90
51908;DHT22;39320;53.214;6.556;2022-09-09T06:34:30;16.60;99.90
51908;DHT22;39320;53.214;6.556;2022-09-09T06:36:56;16.60;99.90
51908;DHT22;39320;53.214;6.556;2022-09-09T06:39:23;16.70;99.90
51908;DHT22;39320;53.214;6.556;2022-09-09T06:41:49;16.70;99.90
51908;DHT22;39320;53.214;6.556;2022-09-09T06:44:15;16.70;99.90
51908;DHT22;39320;53.214;6.556;2022-09-09T06:46:40;16.60;99.90
51908;DHT22;39320;53.214;6.556;2022-09-09T06:49:07;16.70;99.90
51908;DHT22;39320;53.214;6.556;2022-09-09T06:51:34;16.70;99.90
51908;DHT22;39320;53.214;6.556;2022-09-09T06:54:00;16.60;99.90
51908;DHT22;39320;53.214;6.556;2022-09-09T06:58:56;16.60;99.90
51908;DHT22;39320;53.214;6.556;2022-09-09T07:01:23;16.60;99.90
51908;DHT22;39320;53.214;6.556;2022-09-09T07:03:50;16.60;99.90
51908;DHT22;39320;53.214;6.556;2022-09-09T07:06:17;16.60;99.90
51908;DHT22;39320;53.214;6.556;2022-09-09T07:08:43;16.70;99.90
51908;DHT22;39320;53.214;6.556;2022-09-09T07:11:09;16.70;99.90
51908;DHT22;39320;53.214;6.556;2022-09-09T07:13:36;16.70;99.90
51908;DHT22;39320;53.214;6.556;2022-09-09T07:16:09;16.80;99.90
51908;DHT22;39320;53.214;6.556;2022-09-09T07:18:35;16.80;99.90
51908;DHT22;39320;53.214;6.556;2022-09-09T07:21:01;16.80;99.90
51908;DHT22;39320;53.214;6.556;2022-09-09T07:23:27;16.80;99.90
51908;DHT22;39320;53.214;6.556;2022-09-09T07:25:54;16.80;99.90
51908;DHT22;39320;53.214;6.556;2022-09-09T07:28:20;16.80;99.90
51908;DHT22;39320;53.214;6.556;2022-09-09T07:30:55;16.80;99.90
51908;DHT22;39320;53.214;6.556;2022-09-09T07:33:22;16.90;99.90
51908;DHT22;39320;53.214;6.556;2022-09-09T07:35:48;16.90;99.90
51908;DHT22;39320;53.214;6.556;2022-09-09T07:38:14;16.90;99.90
51908;DHT22;39320;53.214;6.556;2022-09-09T07:40:40;16.90;99.90
51908;DHT22;39320;53.214;6.556;2022-09-09T07:43:05;16.80;99.90
51908;DHT22;39320;53.214;6.556;2022-09-09T07:45:32;16.90;99.90
51908;DHT22;39320;53.214;6.556;2022-09-09T07:47:58;16.90;99.90
51908;DHT22;39320;53.214;6.556;2022-09-09T07:50:24;16.90;99.90
51908;DHT22;39320;53.214;6.556;2022-09-09T07:52:53;16.90;99.90
51908;DHT22;39320;53.214;6.556;2022-09-09T07:55:19;16.90;99.90
51908;DHT22;39320;53.214;6.556;2022-09-09T07:57:45;16.90;99.90
51908;DHT22;39320;53.214;6.556;2022-09-09T08:00:11;16.90;99.90
51908;DHT22;39320;53.214;6.556;2022-09-09T08:02:36;17.00;99.90
51908;DHT22;39320;53.214;6.556;2022-09-09T08:05:02;16.90;99.90
51908;DHT22;39320;53.214;6.556;2022-09-09T08:07:28;17.00;99.90
51908;DHT22;39320;53.214;6.556;2022-09-09T08:09:54;17.00;99.90
51908;DHT22;39320;53.214;6.556;2022-09-09T08:12:21;17.00;99.90
51908;DHT22;39320;53.214;6.556;2022-09-09T08:14:46;17.10;99.90
51908;DHT22;39320;53.214;6.556;2022-09-09T08:17:12;17.10;99.90
51908;DHT22;39320;53.214;6.556;2022-09-09T08:19:38;17.20;99.90
51908;DHT22;39320;53.214;6.556;2022-09-09T08:22:03;17.20;99.90
51908;DHT22;39320;53.214;6.556;2022-09-09T08:24:29;17.30;99.90
51908;DHT22;39320;53.214;6.556;2022-09-09T08:26:54;17.20;99.90
51908;DHT22;39320;53.214;6.556;2022-09-09T08:29:22;17.30;99.90
51908;DHT22;39320;53.214;6.556;2022-09-09T08:31:50;17.30;99.90
51908;DHT22;39320;53.214;6.556;2022-09-09T08:34:17;17.30;99.90
51908;DHT22;39320;53.214;6.556;2022-09-09T08:36:45;17.40;99.90
51908;DHT22;39320;53.214;6.556;2022-09-09T08:39:12;17.40;99.90
51908;DHT22;39320;53.214;6.556;2022-09-09T08:52:03;17.60;99.90
51908;DHT22;39320;53.214;6.556;2022-09-09T08:54:32;17.70;99.90
51908;DHT22;39320;53.214;6.556;2022-09-09T08:56:58;17.60;99.90
51908;DHT22;39320;53.214;6.556;2022-09-09T08:59:25;17.70;99.90
51908;DHT22;39320;53.214;6.556;2022-09-09T09:07:53;17.70;99.90
51908;DHT22;39320;53.214;6.556;2022-09-09T09:12:47;17.80;99.90
51908;DHT22;39320;53.214;6.556;2022-09-09T09:15:35;17.80;99.90
51908;DHT22;39320;53.214;6.556;2022-09-09T09:18:02;17.80;99.90
51908;DHT22;39320;53.214;6.556;2022-09-09T09:23:16;17.80;99.90
51908;DHT22;39320;53.214;6.556;2022-09-09T09:25:44;18.00;99.90
51908;DHT22;39320;53.214;6.556;2022-09-09T09:28:12;17.80;99.90
51908;DHT22;39320;53.214;6.556;2022-09-09T09:30:44;17.90;99.90
51908;DHT22;39320;53.214;6.556;2022-09-09T09:33:23;17.90;99.90
51908;DHT22;39320;53.214;6.556;2022-09-09T09:35:51;18.00;99.90
51908;DHT22;39320;53.214;6.556;2022-09-09T09:38:17;18.00;99.90
51908;DHT22;39320;53.214;6.556;2022-09-09T09:40:52;18.00;99.90
51908;DHT22;39320;53.214;6.556;2022-09-09T09:43:25;18.00;99.90
51908;DHT22;39320;53.214;6.556;2022-09-09T09:45:51;18.10;99.90
51908;DHT22;39320;53.214;6.556;2022-09-09T09:48:17;18.10;99.90
51908;DHT22;39320;53.214;6.556;2022-09-09T09:50:50;18.10;99.90
51908;DHT22;39320;53.214;6.556;2022-09-09T09:55:52;18.20;99.90
51908;DHT22;39320;53.214;6.556;2022-09-09T09:58:18;18.20;99.90
51908;DHT22;39320;53.214;6.556;2022-09-09T10:00:48;18.20;99.90
51908;DHT22;39320;53.214;6.556;2022-09-09T10:03:25;18.30;99.90
51908;DHT22;39320;53.214;6.556;2022-09-09T10:05:51;18.30;99.90
51908;DHT22;39320;53.214;6.556;2022-09-09T10:08:17;18.30;99.90
51908;DHT22;39320;53.214;6.556;2022-09-09T10:13:39;18.30;99.90
51908;DHT22;39320;53.214;6.556;2022-09-09T10:24:21;18.50;99.90
51908;DHT22;39320;53.214;6.556;2022-09-09T10:35:21;18.40;99.90
51908;DHT22;39320;53.214;6.556;2022-09-09T10:51:09;18.50;99.90
51908;DHT22;39320;53.214;6.556;2022-09-09T10:53:40;18.50;99.90
51908;DHT22;39320;53.214;6.556;2022-09-09T10:56:10;18.50;99.90
51908;DHT22;39320;53.214;6.556;2022-09-09T11:01:12;18.50;99.90
51908;DHT22;39320;53.214;6.556;2022-09-09T11:03:41;18.60;99.90
51908;DHT22;39320;53.214;6.556;2022-09-09T11:06:15;18.60;99.90
51908;DHT22;39320;53.214;6.556;2022-09-09T11:08:42;18.80;99.90
51908;DHT22;39320;53.214;6.556;2022-09-09T11:18:37;19.00;99.90
51908;DHT22;39320;53.214;6.556;2022-09-09T11:21:05;19.10;99.90
51908;DHT22;39320;53.214;6.556;2022-09-09T11:23:40;19.10;99.90
51908;DHT22;39320;53.214;6.556;2022-09-09T11:26:07;19.20;99.90
51908;DHT22;39320;53.214;6.556;2022-09-09T11:28:52;19.20;99.90
51908;DHT22;39320;53.214;6.556;2022-09-09T11:42:12;19.50;99.90
51908;DHT22;39320;53.214;6.556;2022-09-09T11:44:40;19.60;99.90
51908;DHT22;39320;53.214;6.556;2022-09-09T11:49:54;19.50;99.90
51908;DHT22;39320;53.214;6.556;2022-09-09T11:54:46;19.50;99.90
51908;DHT22;39320;53.214;6.556;2022-09-09T11:57:22;19.50;99.90
51908;DHT22;39320;53.214;6.556;2022-09-09T11:59:50;19.50;99.90
51908;DHT22;39320;53.214;6.556;2022-09-09T12:02:21;19.50;99.90
51908;DHT22;39320;53.214;6.556;2022-09-09T12:05:07;19.50;99.90
51908;DHT22;39320;53.214;6.556;2022-09-09T12:12:38;19.50;99.90
51908;DHT22;39320;53.214;6.556;2022-09-09T12:17:37;19.50;99.90
51908;DHT22;39320;53.214;6.556;2022-09-09T12:27:57;19.50;99.90
51908;DHT22;39320;53.214;6.556;2022-09-09T12:31:10;19.50;99.90
51908;DHT22;39320;53.214;6.556;2022-09-09T12:33:44;19.60;99.90
51908;DHT22;39320;53.214;6.556;2022-09-09T12:36:21;19.60;99.90
51908;DHT22;39320;53.214;6.556;2022-09-09T12:38:49;19.50;99.90
51908;DHT22;39320;53.214;6.556;2022-09-09T12:41:22;19.50;99.90
51908;DHT22;39320;53.214;6.556;2022-09-09T12:44:09;19.50;99.90
51908;DHT22;39320;53.214;6.556;2022-09-09T12:46:43;19.50;99.90
51908;DHT22;39320;53.214;6.556;2022-09-09T12:49:42;19.60;99.90
51908;DHT22;39320;53.214;6.556;2022-09-09T12:52:18;19.60;99.90
51908;DHT22;39320;53.214;6.556;2022-09-09T12:54:46;19.70;99.90
51908;DHT22;39320;53.214;6.556;2022-09-09T12:57:13;19.70;99.90
51908;DHT22;39320;53.214;6.556;2022-09-09T12:59:42;19.70;99.90
51908;DHT22;39320;53.214;6.556;2022-09-09T13:02:26;19.70;99.90
51908;DHT22;39320;53.214;6.556;2022-09-09T13:04:53;19.70;99.90
51908;DHT22;39320;53.214;6.556;2022-09-09T13:07:20;19.80;99.90
51908;DHT22;39320;53.214;6.556;2022-09-09T13:09:48;19.90;99.90
51908;DHT22;39320;53.214;6.556;2022-09-09T13:12:18;20.00;99.90
51908;DHT22;39320;53.214;6.556;2022-09-09T13:14:48;20.00;99.90
51908;DHT22;39320;53.214;6.556;2022-09-09T13:17:24;20.00;99.90
51908;DHT22;39320;53.214;6.556;2022-09-09T13:19:51;20.00;99.90
51908;DHT22;39320;53.214;6.556;2022-09-09T13:25:06;20.10;99.90
51908;DHT22;39320;53.214;6.556;2022-09-09T13:27:41;20.10;99.90
51908;DHT22;39320;53.214;6.556;2022-09-09T13:33:03;20.10;99.90
51908;DHT22;39320;53.214;6.556;2022-09-09T13:35:30;20.00;99.90
51908;DHT22;39320;53.214;6.556;2022-09-09T13:37:56;20.00;99.90
51908;DHT22;39320;53.214;6.556;2022-09-09T13:40:23;19.90;99.90
51908;DHT22;39320;53.214;6.556;2022-09-09T13:42:56;20.00;99.90
51908;DHT22;39320;53.214;6.556;2022-09-09T13:45:24;19.90;99.90
51908;DHT22;39320;53.214;6.556;2022-09-09T13:47:55;19.90;99.90
51908;DHT22;39320;53.214;6.556;2022-09-09T13:50:28;20.00;99.90
51908;DHT22;39320;53.214;6.556;2022-09-09T13:52:59;19.90;99.90
51908;DHT22;39320;53.214;6.556;2022-09-09T13:55:26;19.90;99.90
51908;DHT22;39320;53.214;6.556;2022-09-09T13:58:00;19.90;99.90
51908;DHT22;39320;53.214;6.556;2022-09-09T14:00:29;20.00;99.90
51908;DHT22;39320;53.214;6.556;2022-09-09T14:02:56;20.00;99.90
51908;DHT22;39320;53.214;6.556;2022-09-09T14:05:22;20.10;99.90
51908;DHT22;39320;53.214;6.556;2022-09-09T14:07:49;20.20;99.90
51908;DHT22;39320;53.214;6.556;2022-09-09T14:10:15;20.30;99.90
51908;DHT22;39320;53.214;6.556;2022-09-09T14:12:41;20.40;99.90
51908;DHT22;39320;53.214;6.556;2022-09-09T14:15:09;20.50;99.90
51908;DHT22;39320;53.214;6.556;2022-09-09T14:17:35;20.50;99.90
51908;DHT22;39320;53.214;6.556;2022-09-09T14:20:03;20.50;99.90
51908;DHT22;39320;53.214;6.556;2022-09-09T14:22:31;20.50;99.90
51908;DHT22;39320;53.214;6.556;2022-09-09T14:24:56;20.50;99.90
51908;DHT22;39320;53.214;6.556;2022-09-09T14:27:23;20.50;99.90
51908;DHT22;39320;53.214;6.556;2022-09-09T14:29:51;20.50;99.90
51908;DHT22;39320;53.214;6.556;2022-09-09T14:32:17;20.50;99.90
51908;DHT22;39320;53.214;6.556;2022-09-09T14:34:42;20.50;99.90
51908;DHT22;39320;53.214;6.556;2022-09-09T14:37:08;20.50;99.90
51908;DHT22;39320;53.214;6.556;2022-09-09T14:39:34;20.50;99.90
51908;DHT22;39320;53.214;6.556;2022-09-09T14:41:59;20.40;99.90
51908;DHT22;39320;53.214;6.556;2022-09-09T14:44:26;20.30;99.90
51908;DHT22;39320;53.214;6.556;2022-09-09T14:46:51;20.20;99.90
51908;DHT22;39320;53.214;6.556;2022-09-09T14:49:18;20.10;99.90
51908;DHT22;39320;53.214;6.556;2022-09-09T14:51:44;20.10;99.90
51908;DHT22;39320;53.214;6.556;2022-09-09T14:54:10;20.00;99.90
51908;DHT22;39320;53.214;6.556;2022-09-09T14:56:36;20.00;99.90
51908;DHT22;39320;53.214;6.556;2022-09-09T14:59:02;20.00;99.90
51908;DHT22;39320;53.214;6.556;2022-09-09T15:01:29;19.90;99.90
51908;DHT22;39320;53.214;6.556;2022-09-09T15:04:04;19.90;99.90
51908;DHT22;39320;53.214;6.556;2022-09-09T15:06:33;19.90;99.90
51908;DHT22;39320;53.214;6.556;2022-09-09T15:08:59;20.00;99.90
51908;DHT22;39320;53.214;6.556;2022-09-09T15:11:29;20.00;99.90
51908;DHT22;39320;53.214;6.556;2022-09-09T15:13:56;20.10;99.90
51908;DHT22;39320;53.214;6.556;2022-09-09T15:16:25;20.20;99.90
51908;DHT22;39320;53.214;6.556;2022-09-09T15:18:54;20.20;99.90
51908;DHT22;39320;53.214;6.556;2022-09-09T15:21:22;20.20;99.90
51908;DHT22;39320;53.214;6.556;2022-09-09T15:23:48;20.30;99.90
51908;DHT22;39320;53.214;6.556;2022-09-09T15:26:15;20.30;99.90
51908;DHT22;39320;53.214;6.556;2022-09-09T15:28:42;20.40;99.90
51908;DHT22;39320;53.214;6.556;2022-09-09T15:31:14;20.40;99.90
51908;DHT22;39320;53.214;6.556;2022-09-09T15:33:40;20.40;99.90
51908;DHT22;39320;53.214;6.556;2022-09-09T15:36:36;20.30;99.90
51908;DHT22;39320;53.214;6.556;2022-09-09T15:39:03;20.40;99.90
51908;DHT22;39320;53.214;6.556;2022-09-09T15:41:30;20.40;99.90
51908;DHT22;39320;53.214;6.556;2022-09-09T15:43:57;20.40;99.90
51908;DHT22;39320;53.214;6.556;2022-09-09T15:46:26;20.40;99.90
51908;DHT22;39320;53.214;6.556;2022-09-09T15:48:58;20.40;99.90
51908;DHT22;39320;53.214;6.556;2022-09-09T15:51:25;20.40;99.90
51908;DHT22;39320;53.214;6.556;2022-09-09T15:53:56;20.40;99.90
51908;DHT22;39320;53.214;6.556;2022-09-09T15:56:23;20.40;99.90
51908;DHT22;39320;53.214;6.556;2022-09-09T15:58:49;20.30;99.90
51908;DHT22;39320;53.214;6.556;2022-09-09T16:01:15;20.30;99.90
51908;DHT22;39320;53.214;6.556;2022-09-09T16:03:42;20.30;99.90
51908;DHT22;39320;53.214;6.556;2022-09-09T16:06:09;20.30;99.90
51908;DHT22;39320;53.214;6.556;2022-09-09T16:08:36;20.20;99.90
51908;DHT22;39320;53.214;6.556;2022-09-09T16:13:38;20.10;99.90
51908;DHT22;39320;53.214;6.556;2022-09-09T16:16:06;20.10;99.90
51908;DHT22;39320;53.214;6.556;2022-09-09T16:18:43;20.10;99.90
51908;DHT22;39320;53.214;6.556;2022-09-09T16:21:19;20.10;99.90
51908;DHT22;39320;53.214;6.556;2022-09-09T16:23:45;20.00;99.90
51908;DHT22;39320;53.214;6.556;2022-09-09T16:26:13;20.00;99.90
51908;DHT22;39320;53.214;6.556;2022-09-09T16:28:39;19.90;99.90
51908;DHT22;39320;53.214;6.556;2022-09-09T16:31:10;19.90;99.90
51908;DHT22;39320;53.214;6.556;2022-09-09T16:33:37;19.90;99.90
51908;DHT22;39320;53.214;6.556;2022-09-09T16:36:07;19.90;99.90
51908;DHT22;39320;53.214;6.556;2022-09-09T16:38:33;19.90;99.90
51908;DHT22;39320;53.214;6.556;2022-09-09T16:41:02;19.90;99.90
51908;DHT22;39320;53.214;6.556;2022-09-09T16:43:28;19.90;99.90
51908;DHT22;39320;53.214;6.556;2022-09-09T16:45:53;19.90;99.90
51908;DHT22;39320;53.214;6.556;2022-09-09T16:48:19;19.90;99.90
51908;DHT22;39320;53.214;6.556;2022-09-09T16:50:45;19.90;99.90
51908;DHT22;39320;53.214;6.556;2022-09-09T16:53:12;19.80;99.90
51908;DHT22;39320;53.214;6.556;2022-09-09T16:55:41;19.70;99.90
51908;DHT22;39320;53.214;6.556;2022-09-09T16:58:09;19.60;99.90
51908;DHT22;39320;53.214;6.556;2022-09-09T17:00:35;19.60;99.90
51908;DHT22;39320;53.214;6.556;2022-09-09T17:03:01;19.50;99.90
51908;DHT22;39320;53.214;6.556;2022-09-09T17:05:28;19.50;99.90
51908;DHT22;39320;53.214;6.556;2022-09-09T17:07:55;19.40;99.90
51908;DHT22;39320;53.214;6.556;2022-09-09T17:10:24;19.40;99.90
51908;DHT22;39320;53.214;6.556;2022-09-09T17:12:51;19.40;99.90
51908;DHT22;39320;53.214;6.556;2022-09-09T17:15:17;19.30;99.90
51908;DHT22;39320;53.214;6.556;2022-09-09T17:17:44;19.30;99.90
51908;DHT22;39320;53.214;6.556;2022-09-09T17:20:11;19.30;99.90
51908;DHT22;39320;53.214;6.556;2022-09-09T17:22:37;19.20;99.90
51908;DHT22;39320;53.214;6.556;2022-09-09T17:25:03;19.10;99.90
51908;DHT22;39320;53.214;6.556;2022-09-09T17:27:29;19.10;99.90
51908;DHT22;39320;53.214;6.556;2022-09-09T17:29:58;19.10;99.90
51908;DHT22;39320;53.214;6.556;2022-09-09T17:32:24;19.10;99.90
51908;DHT22;39320;53.214;6.556;2022-09-09T17:34:51;19.00;99.90
51908;DHT22;39320;53.214;6.556;2022-09-09T17:37:18;19.00;99.90
51908;DHT22;39320;53.214;6.556;2022-09-09T17:39:44;19.00;99.90
51908;DHT22;39320;53.214;6.556;2022-09-09T17:42:09;19.00;99.90
51908;DHT22;39320;53.214;6.556;2022-09-09T17:44:35;19.00;99.90
51908;DHT22;39320;53.214;6.556;2022-09-09T17:47:01;19.00;99.90
51908;DHT22;39320;53.214;6.556;2022-09-09T17:49:29;19.00;99.90
51908;DHT22;39320;53.214;6.556;2022-09-09T17:51:55;18.90;99.90
51908;DHT22;39320;53.214;6.556;2022-09-09T17:54:21;18.90;99.90
51908;DHT22;39320;53.214;6.556;2022-09-09T17:56:48;18.90;99.90
51908;DHT22;39320;53.214;6.556;2022-09-09T17:59:15;18.90;99.90
51908;DHT22;39320;53.214;6.556;2022-09-09T18:01:44;18.90;99.90
51908;DHT22;39320;53.214;6.556;2022-09-09T18:04:12;18.90;99.90
51908;DHT22;39320;53.214;6.556;2022-09-09T18:06:41;18.90;99.90